Hortensia, Argentina
Current Conditions -  °F | °C
As of 11:00 AM on Friday 31 Oct 2014 (Local Time) from SAEZ Reporting Station
Light Rain Light Rain  
Wind Chill: 17°   Ceiling: 3000
Heat Index: 17°   Visibility: 5mi
Dew Point: 14°   Wind: 2mph
Humidity: 82%   Direction: NA
Pressure: 30.03"   Gusts: NA
Location:  35.93°S, 61.28°W
Report Text: SAEZ 311400Z VRB02KT 8000 -RA SCT022 BKN030 OVC070 17/14 Q1017
Loading
Personal Weather Stations






























Interactive Weather Map
Tropical Storm Tracking
New forecast layout! Learn more

10-Day Weather Forecast

Advertisements
Track Severe Weather on mobile